sensor_id;sensor_type;location;lat;lon;timestamp;pressure;altitude;pressure_sealevel;temperature;humidity
71948;BME280;63257;55.082;38.772;2023-03-01T00:01:05;99040.69;;;-4.28;53.76
71948;BME280;63257;55.082;38.772;2023-03-01T00:03:33;99029.66;;;-4.42;53.92
71948;BME280;63257;55.082;38.772;2023-03-01T00:05:59;99051.91;;;-4.32;54.16
71948;BME280;63257;55.082;38.772;2023-03-01T00:08:26;99037.31;;;-4.36;53.75
71948;BME280;63257;55.082;38.772;2023-03-01T00:11:14;99039.91;;;-4.36;53.89
71948;BME280;63257;55.082;38.772;2023-03-01T00:13:43;99022.03;;;-4.56;53.68
71948;BME280;63257;55.082;38.772;2023-03-01T00:16:12;99034.00;;;-4.49;53.99
71948;BME280;63257;55.082;38.772;2023-03-01T00:18:39;99028.91;;;-4.58;54.11
71948;BME280;63257;55.082;38.772;2023-03-01T00:21:05;99009.22;;;-4.67;54.04
71948;BME280;63257;55.082;38.772;2023-03-01T00:23:33;99024.59;;;-4.59;54.40
71948;BME280;63257;55.082;38.772;2023-03-01T00:25:59;99017.81;;;-4.68;54.41
71948;BME280;63257;55.082;38.772;2023-03-01T00:28:24;99030.72;;;-4.71;54.66
71948;BME280;63257;55.082;38.772;2023-03-01T00:30:50;99023.03;;;-4.80;55.08
71948;BME280;63257;55.082;38.772;2023-03-01T00:33:17;99009.31;;;-4.85;54.85
71948;BME280;63257;55.082;38.772;2023-03-01T00:35:43;99016.19;;;-4.84;55.48
71948;BME280;63257;55.082;38.772;2023-03-01T00:38:09;98997.38;;;-5.00;55.24
71948;BME280;63257;55.082;38.772;2023-03-01T00:40:35;99011.94;;;-4.90;55.07
71948;BME280;63257;55.082;38.772;2023-03-01T00:43:02;99011.09;;;-4.94;55.19
71948;BME280;63257;55.082;38.772;2023-03-01T00:45:28;99013.72;;;-5.01;55.00
71948;BME280;63257;55.082;38.772;2023-03-01T00:47:58;99016.31;;;-5.03;55.42
71948;BME280;63257;55.082;38.772;2023-03-01T00:50:24;99011.19;;;-5.11;55.31
71948;BME280;63257;55.082;38.772;2023-03-01T00:52:54;99007.72;;;-5.06;55.48
71948;BME280;63257;55.082;38.772;2023-03-01T00:55:21;98988.94;;;-5.25;55.00
71948;BME280;63257;55.082;38.772;2023-03-01T00:57:47;99015.53;;;-5.23;55.33
71948;BME280;63257;55.082;38.772;2023-03-01T01:00:13;99013.81;;;-5.21;54.98
71948;BME280;63257;55.082;38.772;2023-03-01T01:02:40;99018.09;;;-5.25;55.19
71948;BME280;63257;55.082;38.772;2023-03-01T01:05:06;99003.59;;;-5.40;54.94
71948;BME280;63257;55.082;38.772;2023-03-01T01:07:32;99015.56;;;-5.39;55.34
71948;BME280;63257;55.082;38.772;2023-03-01T01:09:58;98991.66;;;-5.56;55.00
71948;BME280;63257;55.082;38.772;2023-03-01T01:12:25;99006.16;;;-5.41;55.07
71948;BME280;63257;55.082;38.772;2023-03-01T01:14:51;99007.06;;;-5.50;54.88
71948;BME280;63257;55.082;38.772;2023-03-01T01:17:17;99004.47;;;-5.50;55.12
71948;BME280;63257;55.082;38.772;2023-03-01T01:19:42;99011.38;;;-5.52;54.70
71948;BME280;63257;55.082;38.772;2023-03-01T01:22:08;99005.38;;;-5.57;54.93
71948;BME280;63257;55.082;38.772;2023-03-01T01:24:36;99000.22;;;-5.59;55.06
71948;BME280;63257;55.082;38.772;2023-03-01T01:27:01;98984.84;;;-5.76;54.73
71948;BME280;63257;55.082;38.772;2023-03-01T01:29:27;98981.44;;;-5.81;54.91
71948;BME280;63257;55.082;38.772;2023-03-01T01:31:53;98998.56;;;-5.80;54.43
71948;BME280;63257;55.082;38.772;2023-03-01T01:34:21;99010.56;;;-5.73;54.94
71948;BME280;63257;55.082;38.772;2023-03-01T01:36:50;99020.84;;;-5.73;54.48
71948;BME280;63257;55.082;38.772;2023-03-01T01:39:18;99010.56;;;-5.79;54.68
71948;BME280;63257;55.082;38.772;2023-03-01T01:41:44;99013.16;;;-5.84;54.98
71948;BME280;63257;55.082;38.772;2023-03-01T01:44:23;99013.13;;;-5.79;55.32
71948;BME280;63257;55.082;38.772;2023-03-01T01:47:01;99014.84;;;-5.83;54.76
71948;BME280;63257;55.082;38.772;2023-03-01T01:49:38;99008.88;;;-5.88;55.12
71948;BME280;63257;55.082;38.772;2023-03-01T01:52:10;98992.63;;;-6.01;55.12
71948;BME280;63257;55.082;38.772;2023-03-01T01:55:05;99008.88;;;-5.92;55.18
71948;BME280;63257;55.082;38.772;2023-03-01T01:57:40;99015.72;;;-5.91;55.28
71948;BME280;63257;55.082;38.772;2023-03-01T02:00:13;99012.28;;;-5.95;54.92
71948;BME280;63257;55.082;38.772;2023-03-01T02:02:40;98997.78;;;-6.07;55.45
71948;BME280;63257;55.082;38.772;2023-03-01T02:05:12;99025.16;;;-5.97;55.50
71948;BME280;63257;55.082;38.772;2023-03-01T02:07:39;99007.19;;;-6.00;55.45
71948;BME280;63257;55.082;38.772;2023-03-01T02:10:08;98993.53;;;-6.02;55.42
71948;BME280;63257;55.082;38.772;2023-03-01T02:12:35;99006.34;;;-5.99;55.31
71948;BME280;63257;55.082;38.772;2023-03-01T02:15:02;99001.22;;;-6.00;55.09
71948;BME280;63257;55.082;38.772;2023-03-01T02:17:29;99012.28;;;-5.97;54.93
71948;BME280;63257;55.082;38.772;2023-03-01T02:22:36;98999.50;;;-6.09;55.11
71948;BME280;63257;55.082;38.772;2023-03-01T02:25:30;99012.34;;;-6.00;55.32
71948;BME280;63257;55.082;38.772;2023-03-01T02:28:51;99011.50;;;-5.99;55.27
71948;BME280;63257;55.082;38.772;2023-03-01T02:30:53;99008.91;;;-6.05;55.38
71948;BME280;63257;55.082;38.772;2023-03-01T02:33:38;99002.91;;;-6.11;55.58
71948;BME280;63257;55.082;38.772;2023-03-01T02:36:14;99007.22;;;-6.06;55.48
71948;BME280;63257;55.082;38.772;2023-03-01T02:38:41;99008.94;;;-6.09;55.16
71948;BME280;63257;55.082;38.772;2023-03-01T02:41:10;98988.41;;;-6.26;55.50
71948;BME280;63257;55.082;38.772;2023-03-01T02:43:37;99019.19;;;-6.17;55.46
71948;BME280;63257;55.082;38.772;2023-03-01T02:46:15;98994.41;;;-6.31;55.91
71948;BME280;63257;55.082;38.772;2023-03-01T02:48:47;99007.22;;;-6.12;55.41
71948;BME280;63257;55.082;38.772;2023-03-01T02:54:47;99014.91;;;-6.20;56.03
71948;BME280;63257;55.082;38.772;2023-03-01T02:57:05;99007.22;;;-6.21;55.57
71948;BME280;63257;55.082;38.772;2023-03-01T02:59:34;99012.38;;;-6.24;55.80
71948;BME280;63257;55.082;38.772;2023-03-01T03:02:22;99018.34;;;-6.25;55.90
71948;BME280;63257;55.082;38.772;2023-03-01T03:05:28;98957.59;;;-6.73;56.18
71948;BME280;63257;55.082;38.772;2023-03-01T03:07:57;99019.22;;;-6.33;56.11
71948;BME280;63257;55.082;38.772;2023-03-01T03:10:26;99004.66;;;-6.37;56.27
71948;BME280;63257;55.082;38.772;2023-03-01T03:12:57;99014.09;;;-6.36;56.43
71948;BME280;63257;55.082;38.772;2023-03-01T03:15:25;99016.66;;;-6.37;56.29
71948;BME280;63257;55.082;38.772;2023-03-01T03:17:52;98996.09;;;-6.45;56.28
71948;BME280;63257;55.082;38.772;2023-03-01T03:20:21;99008.06;;;-6.39;56.39
71948;BME280;63257;55.082;38.772;2023-03-01T03:22:49;99010.66;;;-6.35;56.66
71948;BME280;63257;55.082;38.772;2023-03-01T03:25:17;98989.25;;;-6.43;56.41
71948;BME280;63257;55.082;38.772;2023-03-01T03:27:44;98962.72;;;-6.62;56.46
71948;BME280;63257;55.082;38.772;2023-03-01T03:30:14;98997.78;;;-6.36;56.69
71948;BME280;63257;55.082;38.772;2023-03-01T03:32:41;98984.97;;;-6.44;56.73
71948;BME280;63257;55.082;38.772;2023-03-01T03:35:09;98977.28;;;-6.56;56.62
71948;BME280;63257;55.082;38.772;2023-03-01T03:37:39;98991.81;;;-6.52;57.11
71948;BME280;63257;55.082;38.772;2023-03-01T03:40:25;99004.66;;;-6.46;56.96
71948;BME280;63257;55.082;38.772;2023-03-01T03:42:51;99013.22;;;-6.44;57.19
71948;BME280;63257;55.082;38.772;2023-03-01T03:45:18;99009.78;;;-6.48;57.02
71948;BME280;63257;55.082;38.772;2023-03-01T03:47:44;99014.09;;;-6.51;57.05
71948;BME280;63257;55.082;38.772;2023-03-01T03:50:13;99025.19;;;-6.54;57.61
71948;BME280;63257;55.082;38.772;2023-03-01T03:52:39;99006.34;;;-6.56;57.04
71948;BME280;63257;55.082;38.772;2023-03-01T03:55:07;99023.50;;;-6.59;57.40
71948;BME280;63257;55.082;38.772;2023-03-01T03:57:37;99005.47;;;-6.78;58.00
71948;BME280;63257;55.082;38.772;2023-03-01T04:00:05;99013.16;;;-6.73;57.78
71948;BME280;63257;55.082;38.772;2023-03-01T04:02:42;99021.75;;;-6.70;57.86
71948;BME280;63257;55.082;38.772;2023-03-01T04:05:09;99018.31;;;-6.76;58.02
71948;BME280;63257;55.082;38.772;2023-03-01T04:07:38;99024.31;;;-6.76;58.40
71948;BME280;63257;55.082;38.772;2023-03-01T04:10:07;99026.84;;;-6.79;59.01
71948;BME280;63257;55.082;38.772;2023-03-01T04:12:34;98989.16;;;-7.08;58.90
71948;BME280;63257;55.082;38.772;2023-03-01T04:15:01;99026.00;;;-6.75;58.61
71948;BME280;63257;55.082;38.772;2023-03-01T04:17:29;99020.88;;;-6.76;58.70
71948;BME280;63257;55.082;38.772;2023-03-01T04:19:55;99014.88;;;-6.85;58.70
71948;BME280;63257;55.082;38.772;2023-03-01T04:22:21;99037.13;;;-6.80;59.33
71948;BME280;63257;55.082;38.772;2023-03-01T04:24:47;99038.84;;;-6.76;59.26
71948;BME280;63257;55.082;38.772;2023-03-01T04:27:12;99020.84;;;-6.96;59.32
71948;BME280;63257;55.082;38.772;2023-03-01T04:29:38;99043.97;;;-6.79;59.21
71948;BME280;63257;55.082;38.772;2023-03-01T04:32:04;99051.69;;;-6.76;59.26
71948;BME280;63257;55.082;38.772;2023-03-01T04:34:30;99050.78;;;-6.85;59.60
71948;BME280;63257;55.082;38.772;2023-03-01T04:36:56;99043.13;;;-6.77;59.52
71948;BME280;63257;55.082;38.772;2023-03-01T04:39:22;99025.13;;;-6.92;59.49
71948;BME280;63257;55.082;38.772;2023-03-01T04:41:48;99047.38;;;-6.79;59.42
71948;BME280;63257;55.082;38.772;2023-03-01T04:44:14;99060.22;;;-6.79;59.80
71948;BME280;63257;55.082;38.772;2023-03-01T04:46:40;99057.66;;;-6.80;59.71
71948;BME280;63257;55.082;38.772;2023-03-01T04:49:06;99057.66;;;-6.79;60.05
71948;BME280;63257;55.082;38.772;2023-03-01T04:51:31;99069.63;;;-6.84;59.91
71948;BME280;63257;55.082;38.772;2023-03-01T04:53:58;99036.25;;;-6.95;59.95
71948;BME280;63257;55.082;38.772;2023-03-01T04:56:25;99071.34;;;-6.75;59.88
71948;BME280;63257;55.082;38.772;2023-03-01T04:58:53;99065.38;;;-6.73;59.61
71948;BME280;63257;55.082;38.772;2023-03-01T05:01:20;99055.09;;;-6.88;60.29
71948;BME280;63257;55.082;38.772;2023-03-01T05:03:51;99059.41;;;-6.67;60.34
71948;BME280;63257;55.082;38.772;2023-03-01T05:06:19;99055.97;;;-6.71;59.81
71948;BME280;63257;55.082;38.772;2023-03-01T05:08:45;99065.41;;;-6.59;59.63
71948;BME280;63257;55.082;38.772;2023-03-01T05:11:12;99066.28;;;-6.55;59.90
71948;BME280;63257;55.082;38.772;2023-03-01T05:13:39;99075.69;;;-6.59;59.45
71948;BME280;63257;55.082;38.772;2023-03-01T05:16:06;99067.09;;;-6.66;59.69
71948;BME280;63257;55.082;38.772;2023-03-01T05:18:37;99069.69;;;-6.59;59.84
71948;BME280;63257;55.082;38.772;2023-03-01T05:21:08;99101.34;;;-6.56;60.20
71948;BME280;63257;55.082;38.772;2023-03-01T05:23:34;99084.25;;;-6.55;59.87
71948;BME280;63257;55.082;38.772;2023-03-01T05:26:02;99083.38;;;-6.56;59.71
71948;BME280;63257;55.082;38.772;2023-03-01T05:28:30;99080.84;;;-6.48;59.80
71948;BME280;63257;55.082;38.772;2023-03-01T05:30:56;99086.81;;;-6.48;59.89
71948;BME280;63257;55.082;38.772;2023-03-01T05:33:23;99085.97;;;-6.45;59.38
71948;BME280;63257;55.082;38.772;2023-03-01T05:35:50;99090.28;;;-6.32;60.02
71948;BME280;63257;55.082;38.772;2023-03-01T05:38:17;99086.84;;;-6.34;59.68
71948;BME280;63257;55.082;38.772;2023-03-01T05:40:44;99075.72;;;-6.34;59.62
71948;BME280;63257;55.082;38.772;2023-03-01T05:43:11;99086.84;;;-6.21;59.61
71948;BME280;63257;55.082;38.772;2023-03-01T05:45:39;99101.44;;;-6.14;59.28
71948;BME280;63257;55.082;38.772;2023-03-01T05:48:07;99072.31;;;-6.18;59.02
71948;BME280;63257;55.082;38.772;2023-03-01T05:50:40;99044.06;;;-6.21;58.83
71948;BME280;63257;55.082;38.772;2023-03-01T05:53:13;99077.44;;;-6.01;58.61
71948;BME280;63257;55.082;38.772;2023-03-01T05:55:39;99115.09;;;-5.87;58.58
71948;BME280;63257;55.082;38.772;2023-03-01T05:58:09;99109.09;;;-5.91;58.61
71948;BME280;63257;55.082;38.772;2023-03-01T06:00:37;99100.53;;;-5.90;58.97
71948;BME280;63257;55.082;38.772;2023-03-01T06:03:03;99103.09;;;-5.91;58.67
71948;BME280;63257;55.082;38.772;2023-03-01T06:05:29;99077.44;;;-6.04;58.83
71948;BME280;63257;55.082;38.772;2023-03-01T06:07:59;99118.50;;;-5.74;58.43
71948;BME280;63257;55.082;38.772;2023-03-01T06:10:25;99089.41;;;-5.89;58.87
71948;BME280;63257;55.082;38.772;2023-03-01T06:12:51;99115.09;;;-5.75;59.14
71948;BME280;63257;55.082;38.772;2023-03-01T06:15:17;99115.09;;;-5.81;58.79
71948;BME280;63257;55.082;38.772;2023-03-01T06:17:44;99106.53;;;-5.74;58.75
71948;BME280;63257;55.082;38.772;2023-03-01T06:20:20;99100.50;;;-5.76;58.65
71948;BME280;63257;55.082;38.772;2023-03-01T06:22:48;99114.25;;;-5.65;58.88
71948;BME280;63257;55.082;38.772;2023-03-01T06:25:18;99121.06;;;-5.48;58.20
71948;BME280;63257;55.082;38.772;2023-03-01T06:27:45;99097.94;;;-5.77;58.21
71948;BME280;63257;55.082;38.772;2023-03-01T06:30:13;99129.66;;;-5.63;58.74
71948;BME280;63257;55.082;38.772;2023-03-01T06:32:40;99119.38;;;-5.65;58.22
71948;BME280;63257;55.082;38.772;2023-03-01T06:35:09;99128.78;;;-5.53;58.62
71948;BME280;63257;55.082;38.772;2023-03-01T06:37:35;99118.47;;;-5.39;58.30
71948;BME280;63257;55.082;38.772;2023-03-01T06:40:02;99142.47;;;-5.43;57.76
71948;BME280;63257;55.082;38.772;2023-03-01T06:42:34;99149.38;;;-5.47;58.38
71948;BME280;63257;55.082;38.772;2023-03-01T06:45:02;99135.63;;;-5.29;57.88
71948;BME280;63257;55.082;38.772;2023-03-01T06:47:30;99126.19;;;-5.39;58.10
71948;BME280;63257;55.082;38.772;2023-03-01T06:49:56;99133.91;;;-5.40;57.99
71948;BME280;63257;55.082;38.772;2023-03-01T06:52:22;99140.75;;;-5.19;57.94
71948;BME280;63257;55.082;38.772;2023-03-01T07:02:23;99148.47;;;-5.19;57.23
71948;BME280;63257;55.082;38.772;2023-03-01T07:04:50;99115.91;;;-5.33;57.33
71948;BME280;63257;55.082;38.772;2023-03-01T07:07:17;99092.72;;;-5.30;57.36
71948;BME280;63257;55.082;38.772;2023-03-01T07:09:44;99147.56;;;-5.03;56.66
71948;BME280;63257;55.082;38.772;2023-03-01T07:12:10;99162.91;;;-4.80;56.45
71948;BME280;63257;55.082;38.772;2023-03-01T07:14:36;99151.78;;;-4.82;56.58
71948;BME280;63257;55.082;38.772;2023-03-01T07:17:02;99121.72;;;-4.80;56.24
71948;BME280;63257;55.082;38.772;2023-03-01T07:19:28;99153.38;;;-4.53;56.18
71948;BME280;63257;55.082;38.772;2023-03-01T07:21:54;99159.31;;;-4.40;55.54
71948;BME280;63257;55.082;38.772;2023-03-01T07:24:21;99151.53;;;-4.32;55.26
71948;BME280;63257;55.082;38.772;2023-03-01T07:26:51;99158.25;;;-4.10;54.71
71948;BME280;63257;55.082;38.772;2023-03-01T07:29:17;99158.22;;;-4.00;54.56
71948;BME280;63257;55.082;38.772;2023-03-01T07:31:44;99155.56;;;-3.89;53.86
71948;BME280;63257;55.082;38.772;2023-03-01T07:34:09;99178.03;;;-4.04;53.71
71948;BME280;63257;55.082;38.772;2023-03-01T07:36:37;99178.63;;;-3.69;53.55
71948;BME280;63257;55.082;38.772;2023-03-01T07:39:03;99157.03;;;-3.59;53.17
71948;BME280;63257;55.082;38.772;2023-03-01T07:41:29;99164.53;;;-3.33;53.44
71948;BME280;63257;55.082;38.772;2023-03-01T07:43:55;99185.19;;;-3.31;52.26
71948;BME280;63257;55.082;38.772;2023-03-01T07:46:21;99165.44;;;-3.35;53.16
71948;BME280;63257;55.082;38.772;2023-03-01T07:48:48;99187.84;;;-3.39;53.05
71948;BME280;63257;55.082;38.772;2023-03-01T07:51:13;99178.34;;;-3.34;52.92
71948;BME280;63257;55.082;38.772;2023-03-01T07:53:40;99177.59;;;-3.50;52.89
71948;BME280;63257;55.082;38.772;2023-03-01T07:56:08;99192.31;;;-3.61;53.88
71948;BME280;63257;55.082;38.772;2023-03-01T07:58:35;99209.44;;;-3.51;53.36
71948;BME280;63257;55.082;38.772;2023-03-01T08:01:02;99190.59;;;-3.61;53.64
71948;BME280;63257;55.082;38.772;2023-03-01T08:03:28;99194.81;;;-3.53;53.64
71948;BME280;63257;55.082;38.772;2023-03-01T08:05:54;99192.13;;;-3.36;53.34
71948;BME280;63257;55.082;38.772;2023-03-01T08:08:20;99195.56;;;-3.37;53.25
71948;BME280;63257;55.082;38.772;2023-03-01T08:10:45;99202.44;;;-3.36;53.71
71948;BME280;63257;55.082;38.772;2023-03-01T08:13:12;99163.84;;;-3.49;53.50
71948;BME280;63257;55.082;38.772;2023-03-01T08:15:37;99189.66;;;-3.50;53.37
71948;BME280;63257;55.082;38.772;2023-03-01T08:18:03;99193.19;;;-3.64;53.98
71948;BME280;63257;55.082;38.772;2023-03-01T08:20:29;99189.88;;;-3.81;54.43
71948;BME280;63257;55.082;38.772;2023-03-01T08:22:57;99163.19;;;-3.74;54.11
71948;BME280;63257;55.082;38.772;2023-03-01T08:25:23;99201.69;;;-3.49;53.95
71948;BME280;63257;55.082;38.772;2023-03-01T08:27:49;99197.22;;;-3.32;53.61
71948;BME280;63257;55.082;38.772;2023-03-01T08:30:15;99204.91;;;-3.27;53.40
71948;BME280;63257;55.082;38.772;2023-03-01T08:32:40;99194.50;;;-3.16;53.30
71948;BME280;63257;55.082;38.772;2023-03-01T08:35:07;99198.59;;;-2.94;52.88
71948;BME280;63257;55.082;38.772;2023-03-01T08:37:33;99195.97;;;-2.91;52.97
71948;BME280;63257;55.082;38.772;2023-03-01T08:40:01;99180.69;;;-3.09;53.26
71948;BME280;63257;55.082;38.772;2023-03-01T08:42:29;99216.03;;;-3.16;52.46
71948;BME280;63257;55.082;38.772;2023-03-01T08:44:55;99191.84;;;-3.09;53.32
71948;BME280;63257;55.082;38.772;2023-03-01T08:47:22;99232.53;;;-3.34;53.46
71948;BME280;63257;55.082;38.772;2023-03-01T08:49:49;99200.66;;;-3.28;53.83
71948;BME280;63257;55.082;38.772;2023-03-01T08:52:15;99205.03;;;-3.41;54.17
71948;BME280;63257;55.082;38.772;2023-03-01T08:54:42;99211.13;;;-3.48;54.44
71948;BME280;63257;55.082;38.772;2023-03-01T08:57:07;99217.94;;;-3.41;54.10
71948;BME280;63257;55.082;38.772;2023-03-01T08:59:35;99214.41;;;-3.28;54.15
71948;BME280;63257;55.082;38.772;2023-03-01T09:02:04;99218.88;;;-3.50;53.98
71948;BME280;63257;55.082;38.772;2023-03-01T09:04:30;99226.75;;;-3.68;54.15
71948;BME280;63257;55.082;38.772;2023-03-01T09:06:56;99210.41;;;-3.63;54.71
71948;BME280;63257;55.082;38.772;2023-03-01T09:09:23;99227.53;;;-3.55;54.66
71948;BME280;63257;55.082;38.772;2023-03-01T09:11:50;99226.66;;;-3.53;54.74
71948;BME280;63257;55.082;38.772;2023-03-01T09:14:16;99234.41;;;-3.53;54.59
71948;BME280;63257;55.082;38.772;2023-03-01T09:16:42;99218.75;;;-3.33;54.69
71948;BME280;63257;55.082;38.772;2023-03-01T09:19:09;99215.34;;;-3.36;54.22
71948;BME280;63257;55.082;38.772;2023-03-01T09:21:34;99212.66;;;-3.24;54.32
71948;BME280;63257;55.082;38.772;2023-03-01T09:24:01;99203.16;;;-3.20;53.79
71948;BME280;63257;55.082;38.772;2023-03-01T09:26:27;99216.84;;;-3.09;53.82
71948;BME280;63257;55.082;38.772;2023-03-01T09:28:55;99198.81;;;-3.15;52.97
71948;BME280;63257;55.082;38.772;2023-03-01T09:31:23;99227.94;;;-3.01;52.73
71948;BME280;63257;55.082;38.772;2023-03-01T09:33:51;99165.66;;;-3.59;53.28
71948;BME280;63257;55.082;38.772;2023-03-01T09:36:20;99208.41;;;-3.28;52.67
71948;BME280;63257;55.082;38.772;2023-03-01T09:38:46;99225.47;;;-3.16;52.56
71948;BME280;63257;55.082;38.772;2023-03-01T09:43:47;99233.75;;;-2.79;52.97
71948;BME280;63257;55.082;38.772;2023-03-01T09:46:21;99251.69;;;-2.65;52.25
71948;BME280;63257;55.082;38.772;2023-03-01T09:49:07;99223.44;;;-2.80;51.80
71948;BME280;63257;55.082;38.772;2023-03-01T09:51:36;99231.19;;;-2.83;52.56
71948;BME280;63257;55.082;38.772;2023-03-01T09:54:03;99216.78;;;-3.06;52.13
71948;BME280;63257;55.082;38.772;2023-03-01T09:56:40;99219.22;;;-2.91;52.58
71948;BME280;63257;55.082;38.772;2023-03-01T09:59:27;99227.63;;;-2.71;52.25
71948;BME280;63257;55.082;38.772;2023-03-01T10:10:47;99226.84;;;-2.78;52.64
71948;BME280;63257;55.082;38.772;2023-03-01T10:15:55;99214.66;;;-2.67;52.27
71948;BME280;63257;55.082;38.772;2023-03-01T10:18:28;99217.31;;;-2.71;51.91
71948;BME280;63257;55.082;38.772;2023-03-01T10:21:08;99221.47;;;-2.58;52.41
71948;BME280;63257;55.082;38.772;2023-03-01T10:23:39;99201.50;;;-2.45;52.05
71948;BME280;63257;55.082;38.772;2023-03-01T10:29:07;99210.97;;;-2.44;51.54
71948;BME280;63257;55.082;38.772;2023-03-01T10:31:41;99210.03;;;-2.39;51.68
71948;BME280;63257;55.082;38.772;2023-03-01T10:34:20;99219.50;;;-2.37;51.35
71948;BME280;63257;55.082;38.772;2023-03-01T10:36:50;99260.75;;;-2.27;51.25
71948;BME280;63257;55.082;38.772;2023-03-01T10:39:22;99221.81;;;-2.17;51.36
71948;BME280;63257;55.082;38.772;2023-03-01T10:41:58;99217.59;;;-2.25;51.28
71948;BME280;63257;55.082;38.772;2023-03-01T10:44:46;99227.94;;;-2.25;51.95
71948;BME280;63257;55.082;38.772;2023-03-01T10:47:21;99225.53;;;-2.39;51.65
71948;BME280;63257;55.082;38.772;2023-03-01T10:50:03;99217.69;;;-2.29;51.99
71948;BME280;63257;55.082;38.772;2023-03-01T10:52:32;99217.59;;;-2.25;51.78
71948;BME280;63257;55.082;38.772;2023-03-01T10:55:21;99239.00;;;-2.13;51.29
71948;BME280;63257;55.082;38.772;2023-03-01T10:57:46;99236.28;;;-2.02;50.90
71948;BME280;63257;55.082;38.772;2023-03-01T11:00:22;99235.97;;;-1.79;50.77
71948;BME280;63257;55.082;38.772;2023-03-01T11:05:26;99238.53;;;-1.78;50.33
71948;BME280;63257;55.082;38.772;2023-03-01T11:07:58;99211.69;;;-1.72;50.12
71948;BME280;63257;55.082;38.772;2023-03-01T11:10:26;99222.06;;;-1.72;49.79
71948;BME280;63257;55.082;38.772;2023-03-01T11:12:53;99200.78;;;-1.90;49.86
71948;BME280;63257;55.082;38.772;2023-03-01T11:15:32;99235.00;;;-1.72;49.87
71948;BME280;63257;55.082;38.772;2023-03-01T11:17:59;99213.25;;;-1.60;49.95
71948;BME280;63257;55.082;38.772;2023-03-01T11:20:27;99210.31;;;-1.37;49.49
71948;BME280;63257;55.082;38.772;2023-03-01T11:23:04;99244.59;;;-1.23;48.73
71948;BME280;63257;55.082;38.772;2023-03-01T11:25:37;99223.63;;;-1.07;48.07
71948;BME280;63257;55.082;38.772;2023-03-01T11:28:09;99223.38;;;-0.93;46.82
71948;BME280;63257;55.082;38.772;2023-03-01T11:30:55;99231.97;;;-0.91;46.01
71948;BME280;63257;55.082;38.772;2023-03-01T11:33:48;99224.16;;;-0.90;45.14
71948;BME280;63257;55.082;38.772;2023-03-01T11:38:43;99249.47;;;-1.04;45.34
71948;BME280;63257;55.082;38.772;2023-03-01T11:41:16;99235.47;;;-0.94;46.29
71948;BME280;63257;55.082;38.772;2023-03-01T11:44:23;99243.09;;;-0.86;45.28
71948;BME280;63257;55.082;38.772;2023-03-01T11:55:55;99236.53;;;-1.04;44.70
71948;BME280;63257;55.082;38.772;2023-03-01T12:06:55;99225.44;;;-1.12;44.18
71948;BME280;63257;55.082;38.772;2023-03-01T12:09:56;99258.22;;;-0.61;44.77
71948;BME280;63257;55.082;38.772;2023-03-01T12:12:36;99211.00;;;-0.79;43.13
71948;BME280;63257;55.082;38.772;2023-03-01T12:20:54;99264.88;;;0.35;42.14
71948;BME280;63257;55.082;38.772;2023-03-01T12:26:28;99228.34;;;0.44;42.28
71948;BME280;63257;55.082;38.772;2023-03-01T12:37:03;99254.31;;;0.44;40.95
71948;BME280;63257;55.082;38.772;2023-03-01T12:42:41;99264.88;;;-0.06;42.30
71948;BME280;63257;55.082;38.772;2023-03-01T12:50:46;99267.66;;;1.01;40.68
71948;BME280;63257;55.082;38.772;2023-03-01T12:53:39;99267.66;;;1.35;39.23
71948;BME280;63257;55.082;38.772;2023-03-01T13:00:32;99277.06;;;1.40;38.83
71948;BME280;63257;55.082;38.772;2023-03-01T13:08:53;99290.34;;;1.62;39.31
71948;BME280;63257;55.082;38.772;2023-03-01T13:11:22;99263.88;;;1.47;39.09
71948;BME280;63257;55.082;38.772;2023-03-01T13:13:49;99289.28;;;1.03;40.10
71948;BME280;63257;55.082;38.772;2023-03-01T13:21:40;99294.16;;;0.01;42.25
71948;BME280;63257;55.082;38.772;2023-03-01T13:24:43;99289.16;;;-0.52;44.42
71948;BME280;63257;55.082;38.772;2023-03-01T13:27:11;99303.31;;;-0.70;44.68
71948;BME280;63257;55.082;38.772;2023-03-01T13:29:55;99291.47;;;-0.85;44.73
71948;BME280;63257;55.082;38.772;2023-03-01T13:32:30;99284.94;;;-0.12;44.08
71948;BME280;63257;55.082;38.772;2023-03-01T13:35:06;99263.50;;;0.19;42.33
71948;BME280;63257;55.082;38.772;2023-03-01T13:37:48;99296.72;;;0.04;42.75
71948;BME280;63257;55.082;38.772;2023-03-01T13:42:56;99281.22;;;-0.93;45.40
71948;BME280;63257;55.082;38.772;2023-03-01T13:45:41;99293.59;;;-1.10;45.87
71948;BME280;63257;55.082;38.772;2023-03-01T13:48:17;99274.50;;;-1.03;46.46
71948;BME280;63257;55.082;38.772;2023-03-01T13:50:52;99264.72;;;-1.42;46.35
71948;BME280;63257;55.082;38.772;2023-03-01T13:53:21;99286.22;;;-1.35;46.46
71948;BME280;63257;55.082;38.772;2023-03-01T14:03:04;99287.47;;;-1.61;47.66
71948;BME280;63257;55.082;38.772;2023-03-01T14:05:32;99299.81;;;-1.83;47.45
71948;BME280;63257;55.082;38.772;2023-03-01T14:07:58;99317.28;;;-1.99;47.37
71948;BME280;63257;55.082;38.772;2023-03-01T14:11:13;99294.06;;;-2.05;48.31
71948;BME280;63257;55.082;38.772;2023-03-01T14:13:43;99258.75;;;-2.08;48.05
71948;BME280;63257;55.082;38.772;2023-03-01T14:18:58;99287.28;;;-2.14;48.89
71948;BME280;63257;55.082;38.772;2023-03-01T14:21:25;99253.44;;;-1.97;48.47
71948;BME280;63257;55.082;38.772;2023-03-01T14:23:52;99262.94;;;-1.97;48.83
71948;BME280;63257;55.082;38.772;2023-03-01T14:26:22;99257.69;;;-1.93;48.92
71948;BME280;63257;55.082;38.772;2023-03-01T14:28:49;99261.94;;;-1.85;48.73
71948;BME280;63257;55.082;38.772;2023-03-01T14:45:19;99252.03;;;-2.19;49.74
71948;BME280;63257;55.082;38.772;2023-03-01T14:47:46;99222.94;;;-2.37;50.03
71948;BME280;63257;55.082;38.772;2023-03-01T14:50:26;99251.31;;;-2.31;50.59
71948;BME280;63257;55.082;38.772;2023-03-01T14:52:57;99239.38;;;-2.43;50.92
71948;BME280;63257;55.082;38.772;2023-03-01T14:55:38;99225.59;;;-2.45;50.93
71948;BME280;63257;55.082;38.772;2023-03-01T14:58:12;99218.88;;;-2.58;50.79
71948;BME280;63257;55.082;38.772;2023-03-01T15:00:49;99240.25;;;-2.45;50.87
71948;BME280;63257;55.082;38.772;2023-03-01T15:03:37;99242.91;;;-2.50;50.68
71948;BME280;63257;55.082;38.772;2023-03-01T15:06:06;99253.16;;;-2.44;51.31